Aviation Digital Data Service (ADDS)

Output produced by METARs form (0825 UTC 24 September 2017)
found at http://aviationweather.gov/adds/metars/
 
KJHW 240520Z 2406/2506 22003KT 6SM BR SKC 
     FM240800 VRB03KT 2SM BR SKC 
     TEMPO 2409/2412 1/2SM FG BKN002 
     FM241300 VRB04KT P6SM SKC 
     FM241700 03006KT P6SM SKC 
     FM250000 VRB03KT P6SM SKC AMD LTD TO CLD VIS AND WIND